createdAt,value
2018-09-11T00:00:30.548Z,16.07
2018-09-11T00:02:58.599Z,15.93
2018-09-11T00:05:26.697Z,15.79
2018-09-11T00:07:54.788Z,15.71
2018-09-11T00:10:22.876Z,15.48
2018-09-11T00:12:51.016Z,15.46
2018-09-11T00:15:19.155Z,15.37
2018-09-11T00:17:47.216Z,15.42
2018-09-11T00:20:15.316Z,15.32
2018-09-11T00:22:43.411Z,15.36
2018-09-11T00:25:11.495Z,15.32
2018-09-11T00:27:39.648Z,15.26
2018-09-11T00:30:07.835Z,15.32
2018-09-11T00:32:35.929Z,15.17
2018-09-11T00:35:04.013Z,15.23
2018-09-11T00:37:32.080Z,15.25
2018-09-11T00:40:00.159Z,15.21
2018-09-11T00:42:28.232Z,15.20
2018-09-11T00:44:56.344Z,15.23
2018-09-11T00:47:24.438Z,15.22
2018-09-11T00:49:59.176Z,15.23
2018-09-11T00:52:27.236Z,15.11
2018-09-11T00:54:55.326Z,15.22
2018-09-11T00:57:23.396Z,15.18
2018-09-11T00:59:51.487Z,15.15
2018-09-11T01:02:19.607Z,15.07
2018-09-11T01:04:47.699Z,15.03
2018-09-11T01:07:15.803Z,15.13
2018-09-11T01:09:43.893Z,15.08
2018-09-11T01:12:12.034Z,15.00
2018-09-11T01:14:40.223Z,14.93
2018-09-11T01:17:08.304Z,14.86
2018-09-11T01:19:36.411Z,14.86
2018-09-11T01:22:04.482Z,14.84
2018-09-11T01:24:32.649Z,14.81
2018-09-11T01:27:00.720Z,14.93
2018-09-11T01:29:28.815Z,14.88
2018-09-11T01:31:56.890Z,14.70
2018-09-11T01:34:25.036Z,14.48
2018-09-11T01:36:53.164Z,14.40
2018-09-11T01:39:21.328Z,14.37
2018-09-11T01:41:49.419Z,14.50
2018-09-11T01:44:17.559Z,14.37
2018-09-11T01:46:45.691Z,14.34
2018-09-11T01:49:13.784Z,14.39
2018-09-11T01:51:41.861Z,14.40
2018-09-11T01:54:09.918Z,14.40
2018-09-11T01:56:37.987Z,14.49
2018-09-11T01:59:06.353Z,14.32
2018-09-11T02:01:34.456Z,14.05
2018-09-11T02:04:02.547Z,14.00
2018-09-11T02:06:30.627Z,14.17
2018-09-11T02:08:58.688Z,14.24
2018-09-11T02:11:26.823Z,13.94
2018-09-11T02:13:54.894Z,14.08
2018-09-11T02:16:22.963Z,13.85
2018-09-11T02:18:51.099Z,13.81
2018-09-11T02:21:19.186Z,13.79
2018-09-11T02:23:47.285Z,13.75
2018-09-11T02:26:15.594Z,13.75
2018-09-11T02:28:43.684Z,13.76
2018-09-11T02:31:11.811Z,13.70
2018-09-11T02:33:39.962Z,13.78
2018-09-11T02:36:08.046Z,13.86
2018-09-11T02:38:36.141Z,13.90
2018-09-11T02:41:04.224Z,13.96
2018-09-11T02:43:32.336Z,13.95
2018-09-11T02:46:00.415Z,13.98
2018-09-11T02:48:28.507Z,13.97
2018-09-11T02:50:56.593Z,13.89
2018-09-11T02:53:24.715Z,13.84
2018-09-11T02:55:52.788Z,13.89
2018-09-11T02:58:20.871Z,13.84
2018-09-11T03:00:48.965Z,13.90
2018-09-11T03:03:17.038Z,13.92
2018-09-11T03:05:45.136Z,13.93
2018-09-11T03:08:13.184Z,13.95
2018-09-11T03:10:41.267Z,13.94
2018-09-11T03:13:09.342Z,13.92
2018-09-11T03:15:37.413Z,13.96
2018-09-11T03:18:05.479Z,13.99
2018-09-11T03:20:33.559Z,14.02
2018-09-11T03:23:01.672Z,14.05
2018-09-11T03:25:29.789Z,14.01
2018-09-11T03:27:57.863Z,14.03
2018-09-11T03:30:25.967Z,13.97
2018-09-11T03:32:54.100Z,13.99
2018-09-11T03:35:22.225Z,13.96
2018-09-11T03:37:50.322Z,13.93
2018-09-11T03:40:18.445Z,13.91
2018-09-11T03:42:46.595Z,13.99
2018-09-11T03:45:14.700Z,14.01
2018-09-11T03:47:42.947Z,13.83
2018-09-11T03:50:11.024Z,13.67
2018-09-11T03:52:39.243Z,13.58
2018-09-11T03:55:07.411Z,13.62
2018-09-11T03:57:35.501Z,13.59
2018-09-11T04:00:03.724Z,13.74
2018-09-11T04:02:31.846Z,13.78
2018-09-11T04:04:59.932Z,13.77
2018-09-11T04:07:27.996Z,13.78
2018-09-11T04:09:56.097Z,13.74
2018-09-11T04:12:24.205Z,13.77
2018-09-11T04:14:52.302Z,13.79
2018-09-11T04:17:20.413Z,13.76
2018-09-11T04:19:48.491Z,13.76
2018-09-11T04:22:16.569Z,13.75
2018-09-11T04:24:44.636Z,13.82
2018-09-11T04:27:12.764Z,13.87
2018-09-11T04:29:40.861Z,13.91
2018-09-11T04:32:08.936Z,13.92
2018-09-11T04:34:37.019Z,13.91
2018-09-11T04:37:05.477Z,13.88
2018-09-11T04:39:33.546Z,13.90
2018-09-11T04:42:01.643Z,13.94
2018-09-11T04:44:29.729Z,13.99
2018-09-11T04:46:57.824Z,13.98
2018-09-11T04:49:25.957Z,13.97
2018-09-11T04:51:54.071Z,13.97
2018-09-11T04:54:22.209Z,13.89
2018-09-11T04:56:50.267Z,13.96
2018-09-11T04:59:18.356Z,13.88
2018-09-11T05:01:46.475Z,13.83
2018-09-11T05:04:14.540Z,13.85
2018-09-11T05:06:42.649Z,13.89
2018-09-11T05:09:11.533Z,13.88
2018-09-11T05:11:39.741Z,13.81
2018-09-11T05:14:08.146Z,13.86
2018-09-11T05:16:36.234Z,13.81
2018-09-11T05:19:04.372Z,13.82
2018-09-11T05:21:32.420Z,13.78
2018-09-11T05:24:00.499Z,13.84
2018-09-11T05:26:28.628Z,13.91
2018-09-11T05:28:56.743Z,13.96
2018-09-11T05:31:24.827Z,14.03
2018-09-11T05:33:52.899Z,14.12
2018-09-11T05:36:21.137Z,14.18
2018-09-11T05:38:49.309Z,14.17
2018-09-11T05:41:17.662Z,14.17
2018-09-11T05:43:45.723Z,14.40
2018-09-11T05:46:13.821Z,14.37
2018-09-11T05:48:41.902Z,14.37
2018-09-11T05:51:09.997Z,14.32
2018-09-11T05:53:38.063Z,14.40
2018-09-11T05:56:06.474Z,14.55
2018-09-11T05:58:34.560Z,14.71
2018-09-11T06:01:02.632Z,14.79
2018-09-11T06:03:30.710Z,14.88
2018-09-11T06:05:58.835Z,14.95
2018-09-11T06:08:26.923Z,15.08
2018-09-11T06:10:55.009Z,15.08
2018-09-11T06:13:23.175Z,15.10
2018-09-11T06:15:51.279Z,15.20
2018-09-11T06:18:19.415Z,15.36
2018-09-11T06:20:47.474Z,15.45
2018-09-11T06:23:15.547Z,15.55
2018-09-11T06:25:43.642Z,15.65
2018-09-11T06:28:11.699Z,15.73
2018-09-11T06:30:39.840Z,15.80
2018-09-11T06:33:07.931Z,15.88
2018-09-11T06:35:36.067Z,15.97
2018-09-11T06:38:04.091Z,15.96
2018-09-11T06:40:32.167Z,16.04
2018-09-11T06:43:00.250Z,16.02
2018-09-11T06:45:28.325Z,16.21
2018-09-11T06:47:56.405Z,16.22
2018-09-11T06:50:24.496Z,16.28
2018-09-11T06:52:52.591Z,16.33
2018-09-11T06:55:20.755Z,16.40
2018-09-11T06:57:48.924Z,16.39
2018-09-11T07:00:17.144Z,16.39
2018-09-11T07:02:45.286Z,16.43
2018-09-11T07:05:13.356Z,16.57
2018-09-11T07:07:41.435Z,16.60
2018-09-11T07:10:09.500Z,16.74
2018-09-11T07:12:37.787Z,16.73
2018-09-11T07:15:05.859Z,16.81
2018-09-11T07:17:33.937Z,16.96
2018-09-11T07:20:02.189Z,17.05
2018-09-11T07:22:30.124Z,17.21
2018-09-11T07:24:58.202Z,17.23
2018-09-11T07:27:26.299Z,17.33
2018-09-11T07:29:54.366Z,17.48
2018-09-11T07:32:22.477Z,17.63
2018-09-11T07:34:50.555Z,17.76
2018-09-11T07:37:18.685Z,17.82
2018-09-11T07:39:46.803Z,18.09
2018-09-11T07:42:15.040Z,18.28
2018-09-11T07:44:43.103Z,18.39
2018-09-11T07:47:11.188Z,18.41
2018-09-11T07:49:39.429Z,18.53
2018-09-11T07:52:07.760Z,18.66
2018-09-11T07:54:35.840Z,18.73
2018-09-11T07:57:03.926Z,18.82
2018-09-11T07:59:31.998Z,19.02
2018-09-11T08:02:00.092Z,19.09
2018-09-11T08:04:28.176Z,19.12
2018-09-11T08:06:56.267Z,19.26
2018-09-11T08:09:24.359Z,19.31
2018-09-11T08:11:52.439Z,19.50
2018-09-11T08:14:20.495Z,19.54
2018-09-11T08:16:48.582Z,19.60
2018-09-11T08:19:16.712Z,19.81
2018-09-11T08:21:44.891Z,19.92
2018-09-11T08:24:12.935Z,19.95
2018-09-11T08:26:41.032Z,20.10
2018-09-11T08:29:09.136Z,20.21
2018-09-11T08:31:37.182Z,20.33
2018-09-11T08:34:05.251Z,20.52
2018-09-11T08:36:33.331Z,20.58
2018-09-11T08:39:01.411Z,20.57
2018-09-11T08:41:29.559Z,20.60
2018-09-11T08:43:57.643Z,20.69
2018-09-11T08:46:25.708Z,20.68
2018-09-11T08:48:53.799Z,20.79
2018-09-11T08:51:21.867Z,21.00
2018-09-11T08:53:49.939Z,21.09
2018-09-11T08:56:18.014Z,21.23
2018-09-11T08:58:46.095Z,21.19
2018-09-11T09:01:14.196Z,21.22
2018-09-11T09:03:42.276Z,21.33
2018-09-11T09:06:10.385Z,21.52
2018-09-11T09:08:38.505Z,21.57
2018-09-11T09:11:06.623Z,21.74
2018-09-11T09:13:34.704Z,21.83
2018-09-11T09:16:02.763Z,21.78
2018-09-11T09:18:30.839Z,21.88
2018-09-11T09:20:58.994Z,21.91
2018-09-11T09:23:27.012Z,21.99
2018-09-11T09:25:55.100Z,22.12
2018-09-11T09:28:23.174Z,22.17
2018-09-11T09:30:57.911Z,22.25
2018-09-11T09:33:26.032Z,22.29
2018-09-11T09:35:54.103Z,22.29
2018-09-11T09:38:22.238Z,22.21
2018-09-11T09:40:50.311Z,22.29
2018-09-11T09:43:18.381Z,22.26
2018-09-11T09:45:46.484Z,22.27
2018-09-11T09:48:14.577Z,22.33
2018-09-11T09:50:42.719Z,22.58
2018-09-11T09:53:10.764Z,22.71
2018-09-11T09:55:38.836Z,22.82
2018-09-11T09:58:07.033Z,22.81
2018-09-11T10:00:40.488Z,22.91
2018-09-11T10:03:08.573Z,23.03
2018-09-11T10:05:36.655Z,23.10
2018-09-11T10:08:04.798Z,23.17
2018-09-11T10:10:32.925Z,23.25
2018-09-11T10:13:01.009Z,23.23
2018-09-11T10:15:29.080Z,23.35
2018-09-11T10:17:57.133Z,23.53
2018-09-11T10:20:25.267Z,23.47
2018-09-11T10:22:53.396Z,23.59
2018-09-11T10:25:21.480Z,23.72
2018-09-11T10:27:49.560Z,23.66
2018-09-11T10:30:17.652Z,23.71
2018-09-11T10:32:45.724Z,23.74
2018-09-11T10:35:13.801Z,23.73
2018-09-11T10:37:41.876Z,23.77
2018-09-11T10:40:09.976Z,23.77
2018-09-11T10:42:38.039Z,23.72
2018-09-11T10:45:06.293Z,23.74
2018-09-11T10:47:34.283Z,23.74
2018-09-11T10:50:02.360Z,23.97
2018-09-11T10:52:30.420Z,24.05
2018-09-11T10:54:58.497Z,24.05
2018-09-11T10:57:26.620Z,24.08
2018-09-11T10:59:54.712Z,24.01
2018-09-11T11:02:22.779Z,24.12
2018-09-11T11:04:53.847Z,24.34
2018-09-11T11:07:21.950Z,24.28
2018-09-11T11:09:50.051Z,24.34
2018-09-11T11:12:18.138Z,24.25
2018-09-11T11:14:46.222Z,24.31
2018-09-11T11:17:14.363Z,24.55
2018-09-11T11:19:42.381Z,24.55
2018-09-11T11:22:10.447Z,24.64
2018-09-11T11:24:38.568Z,24.76
2018-09-11T11:27:06.741Z,24.73
2018-09-11T11:29:34.705Z,24.72
2018-09-11T11:32:02.782Z,24.94
2018-09-11T11:34:30.883Z,24.97
2018-09-11T11:36:59.113Z,24.96
2018-09-11T11:39:27.101Z,24.98
2018-09-11T11:41:55.202Z,25.03
2018-09-11T11:44:23.270Z,25.12
2018-09-11T11:46:51.325Z,25.23
2018-09-11T11:49:19.409Z,25.28
2018-09-11T11:51:47.480Z,25.44
2018-09-11T11:54:15.576Z,25.45
2018-09-11T11:56:43.630Z,25.42
2018-09-11T11:59:11.706Z,25.65
2018-09-11T12:01:39.882Z,25.77
2018-09-11T12:04:08.036Z,25.62
2018-09-11T12:06:36.124Z,25.63
2018-09-11T12:09:06.086Z,25.91
2018-09-11T12:11:34.160Z,25.91
2018-09-11T12:14:02.237Z,25.92
2018-09-11T12:16:30.310Z,25.97
2018-09-11T12:18:58.388Z,26.22
2018-09-11T12:21:26.548Z,26.32
2018-09-11T12:23:54.656Z,26.37
2018-09-11T12:26:22.876Z,26.36
2018-09-11T12:28:50.915Z,26.46
2018-09-11T12:31:19.154Z,26.56
2018-09-11T12:33:47.225Z,26.54
2018-09-11T12:36:15.397Z,26.65
2018-09-11T12:38:43.469Z,26.52
2018-09-11T12:41:11.564Z,26.73
2018-09-11T12:43:39.641Z,26.78
2018-09-11T12:46:07.967Z,26.84
2018-09-11T12:48:35.936Z,26.86
2018-09-11T12:51:03.910Z,26.84
2018-09-11T12:53:32.013Z,26.92
2018-09-11T12:56:00.096Z,26.91
2018-09-11T12:58:28.211Z,27.00
2018-09-11T13:00:56.307Z,27.28
2018-09-11T13:03:24.380Z,27.21
2018-09-11T13:05:52.469Z,27.18
2018-09-11T13:08:20.544Z,27.26
2018-09-11T13:10:48.666Z,27.38
2018-09-11T13:13:16.734Z,27.57
2018-09-11T13:15:44.895Z,27.62
2018-09-11T13:18:12.996Z,27.59
2018-09-11T13:20:41.146Z,27.55
2018-09-11T13:23:09.328Z,27.58
2018-09-11T13:25:37.435Z,27.54
2018-09-11T13:28:05.623Z,27.46
2018-09-11T13:30:33.721Z,27.83
2018-09-11T13:33:01.875Z,27.78
2018-09-11T13:35:29.985Z,27.84
2018-09-11T13:37:58.273Z,27.82
2018-09-11T13:40:26.415Z,27.94
2018-09-11T13:42:54.605Z,27.69
2018-09-11T13:45:22.691Z,27.66
2018-09-11T13:47:50.816Z,27.86
2018-09-11T13:50:18.908Z,27.78
2018-09-11T13:52:47.036Z,27.69
2018-09-11T13:55:15.138Z,27.70
2018-09-11T13:57:43.213Z,27.78
2018-09-11T14:00:11.371Z,27.93
2018-09-11T14:02:39.904Z,27.93
2018-09-11T14:05:08.024Z,28.05
2018-09-11T14:07:36.121Z,27.99
2018-09-11T14:10:04.545Z,28.04
2018-09-11T14:12:32.639Z,27.99
2018-09-11T14:15:00.733Z,28.10
2018-09-11T14:17:28.864Z,28.04
2018-09-11T14:19:56.956Z,28.04
2018-09-11T14:22:25.039Z,27.98
2018-09-11T14:24:53.189Z,28.01
2018-09-11T14:27:21.287Z,27.99
2018-09-11T14:29:49.361Z,28.27
2018-09-11T14:32:17.517Z,28.29
2018-09-11T14:34:45.636Z,28.27
2018-09-11T14:37:13.729Z,28.23
2018-09-11T14:39:42.126Z,28.22
2018-09-11T14:42:10.223Z,28.19
2018-09-11T14:44:38.286Z,28.15
2018-09-11T14:47:06.387Z,28.23
2018-09-11T14:49:34.456Z,28.23
2018-09-11T14:52:02.566Z,28.20
2018-09-11T14:54:30.660Z,28.24
2018-09-11T14:56:58.765Z,28.24
2018-09-11T14:59:26.864Z,28.17
2018-09-11T15:01:54.948Z,28.24
2018-09-11T15:04:23.253Z,28.36
2018-09-11T15:06:51.162Z,28.38
2018-09-11T15:09:19.249Z,28.34
2018-09-11T15:11:47.374Z,28.42
2018-09-11T15:14:15.490Z,28.31
2018-09-11T15:16:43.593Z,28.35
2018-09-11T15:19:11.671Z,28.44
2018-09-11T15:21:39.761Z,28.51
2018-09-11T15:24:07.999Z,28.39
2018-09-11T15:26:36.088Z,28.32
2018-09-11T15:29:04.268Z,28.41
2018-09-11T15:31:32.349Z,28.35
2018-09-11T15:34:00.437Z,28.38
2018-09-11T15:36:28.549Z,28.28
2018-09-11T15:38:56.659Z,28.32
2018-09-11T15:41:24.750Z,28.32
2018-09-11T15:43:52.901Z,28.20
2018-09-11T15:46:21.054Z,28.24
2018-09-11T15:48:49.137Z,28.19
2018-09-11T15:51:17.247Z,28.24
2018-09-11T15:53:45.336Z,28.04
2018-09-11T15:56:13.412Z,28.09
2018-09-11T15:58:41.539Z,28.08
2018-09-11T16:01:09.637Z,28.05
2018-09-11T16:03:37.757Z,28.12
2018-09-11T16:06:05.874Z,28.09
2018-09-11T16:08:33.940Z,28.03
2018-09-11T16:11:02.044Z,27.97
2018-09-11T16:13:30.109Z,27.87
2018-09-11T16:15:58.211Z,27.87
2018-09-11T16:18:26.313Z,27.78
2018-09-11T16:20:54.424Z,27.68
2018-09-11T16:23:22.526Z,27.66
2018-09-11T16:25:50.603Z,27.63
2018-09-11T16:28:18.830Z,27.61
2018-09-11T16:30:46.916Z,27.51
2018-09-11T16:33:15.128Z,27.42
2018-09-11T16:35:43.275Z,27.38
2018-09-11T16:38:11.371Z,27.33
2018-09-11T16:40:39.515Z,27.27
2018-09-11T16:43:07.664Z,27.23
2018-09-11T16:45:35.732Z,27.04
2018-09-11T16:48:03.897Z,27.06
2018-09-11T16:50:31.975Z,27.03
2018-09-11T16:53:00.123Z,26.97
2018-09-11T16:55:28.210Z,26.91
2018-09-11T16:57:56.288Z,26.81
2018-09-11T17:00:24.359Z,26.79
2018-09-11T17:02:52.460Z,26.64
2018-09-11T17:05:20.665Z,26.58
2018-09-11T17:07:48.768Z,26.52
2018-09-11T17:10:16.839Z,26.45
2018-09-11T17:12:45.411Z,26.43
2018-09-11T17:15:13.507Z,26.28
2018-09-11T17:17:41.593Z,26.30
2018-09-11T17:20:09.703Z,26.25
2018-09-11T17:22:37.749Z,26.10
2018-09-11T17:25:05.818Z,26.06
2018-09-11T17:27:33.934Z,26.03
2018-09-11T17:30:02.043Z,25.91
2018-09-11T17:32:30.119Z,25.90
2018-09-11T17:34:59.051Z,25.84
2018-09-11T17:37:27.129Z,25.64
2018-09-11T17:39:55.212Z,25.68
2018-09-11T17:42:23.303Z,25.59
2018-09-11T17:44:51.408Z,25.39
2018-09-11T17:47:19.578Z,25.31
2018-09-11T17:49:47.704Z,25.22
2018-09-11T17:52:15.799Z,25.08
2018-09-11T17:54:43.887Z,24.93
2018-09-11T17:57:11.973Z,24.91
2018-09-11T17:59:40.043Z,24.92
2018-09-11T18:02:08.172Z,24.80
2018-09-11T18:04:36.245Z,24.78
2018-09-11T18:07:04.376Z,24.69
2018-09-11T18:09:32.451Z,24.58
2018-09-11T18:12:00.622Z,24.46
2018-09-11T18:14:28.719Z,24.50
2018-09-11T18:16:56.781Z,24.55
2018-09-11T18:19:24.843Z,24.37
2018-09-11T18:21:52.912Z,24.27
2018-09-11T18:24:21.001Z,24.17
2018-09-11T18:26:49.107Z,24.08
2018-09-11T18:29:17.195Z,24.02
2018-09-11T18:31:45.267Z,23.96
2018-09-11T18:34:13.492Z,23.95
2018-09-11T18:36:41.776Z,23.90
2018-09-11T18:39:10.817Z,23.83
2018-09-11T18:41:38.984Z,23.75
2018-09-11T18:44:07.245Z,23.68
2018-09-11T18:46:35.518Z,23.55
2018-09-11T18:49:03.705Z,23.42
2018-09-11T18:51:32.052Z,23.33
2018-09-11T18:54:01.524Z,23.22
2018-09-11T18:56:29.824Z,23.16
2018-09-11T18:58:58.010Z,22.97
2018-09-11T19:01:26.206Z,22.86
2018-09-11T19:04:00.651Z,22.76
2018-09-11T19:06:29.466Z,22.68
2018-09-11T19:08:57.776Z,22.57
2018-09-11T19:11:30.021Z,22.50
2018-09-11T19:13:59.017Z,22.45
2018-09-11T19:16:27.203Z,22.36
2018-09-11T19:18:55.495Z,22.14
2018-09-11T19:21:23.827Z,22.13
2018-09-11T19:23:52.039Z,22.08
2018-09-11T19:26:20.224Z,21.98
2018-09-11T19:28:48.424Z,21.87
2018-09-11T19:31:16.657Z,21.78
2018-09-11T19:33:46.178Z,21.73
2018-09-11T19:36:14.351Z,21.63
2018-09-11T19:38:43.207Z,21.53
2018-09-11T19:41:11.432Z,21.43
2018-09-11T19:43:39.565Z,21.40
2018-09-11T19:46:07.789Z,21.31
2018-09-11T19:48:35.985Z,21.26
2018-09-11T19:51:04.189Z,21.14
2018-09-11T19:53:32.531Z,21.00
2018-09-11T19:56:00.650Z,20.94
2018-09-11T19:58:29.147Z,20.70
2018-09-11T20:00:57.416Z,20.69
2018-09-11T20:03:25.852Z,20.54
2018-09-11T20:05:54.149Z,20.45
2018-09-11T20:08:22.680Z,20.32
2018-09-11T20:10:57.812Z,20.31
2018-09-11T20:13:27.333Z,20.33
2018-09-11T20:15:55.515Z,20.31
2018-09-11T20:18:24.224Z,20.34
2018-09-11T20:20:52.875Z,20.24
2018-09-11T20:23:21.116Z,20.17
2018-09-11T20:25:49.275Z,20.06
2018-09-11T20:28:17.486Z,19.97
2018-09-11T20:30:46.572Z,19.86
2018-09-11T20:33:15.361Z,19.85
2018-09-11T20:35:43.610Z,19.80
2018-09-11T20:38:12.199Z,19.64
2018-09-11T20:40:40.419Z,19.45
2018-09-11T20:43:08.624Z,19.34
2018-09-11T20:45:36.868Z,19.13
2018-09-11T20:48:05.004Z,18.96
2018-09-11T20:50:33.163Z,19.16
2018-09-11T20:53:03.001Z,18.99
2018-09-11T20:55:31.261Z,19.05
2018-09-11T20:57:59.879Z,19.00
2018-09-11T21:00:29.811Z,19.02
2018-09-11T21:02:58.596Z,18.94
2018-09-11T21:05:27.133Z,18.69
2018-09-11T21:07:55.286Z,18.68
2018-09-11T21:10:23.545Z,18.67
2018-09-11T21:12:51.709Z,18.59
2018-09-11T21:15:20.785Z,18.46
2018-09-11T21:17:49.000Z,18.47
2018-09-11T21:20:17.264Z,18.33
2018-09-11T21:22:46.133Z,18.28
2018-09-11T21:25:14.291Z,18.32
2018-09-11T21:27:43.757Z,18.35
2018-09-11T21:30:11.979Z,18.16
2018-09-11T21:32:40.759Z,18.13
2018-09-11T21:35:09.158Z,18.09
2018-09-11T21:37:38.557Z,18.11
2018-09-11T21:40:06.744Z,17.88
2018-09-11T21:42:34.971Z,17.92
2018-09-11T21:45:03.225Z,17.92
2018-09-11T21:47:32.390Z,17.87
2018-09-11T21:50:01.556Z,17.67
2018-09-11T21:52:30.030Z,17.58
2018-09-11T21:54:58.825Z,17.60
2018-09-11T21:57:27.850Z,17.50
2018-09-11T21:59:56.034Z,17.55
2018-09-11T22:02:24.257Z,17.54
2018-09-11T22:04:52.419Z,17.54
2018-09-11T22:07:20.608Z,17.49
2018-09-11T22:09:48.744Z,17.50
2018-09-11T22:12:17.069Z,17.50
2018-09-11T22:14:45.345Z,17.35
2018-09-11T22:17:13.884Z,17.24
2018-09-11T22:19:42.094Z,17.17
2018-09-11T22:22:10.450Z,17.11
2018-09-11T22:24:38.815Z,17.07
2018-09-11T22:27:06.990Z,16.92
2018-09-11T22:29:35.310Z,16.97
2018-09-11T22:32:03.488Z,16.92
2018-09-11T22:34:31.731Z,16.94
2018-09-11T22:36:59.997Z,16.84
2018-09-11T22:39:28.209Z,16.77
2018-09-11T22:41:56.365Z,16.73
2018-09-11T22:44:24.547Z,16.70
2018-09-11T22:46:52.821Z,16.62
2018-09-11T22:49:21.898Z,16.62
2018-09-11T22:51:50.088Z,16.63
2018-09-11T22:54:20.420Z,16.66
2018-09-11T22:56:55.262Z,16.78
2018-09-11T22:59:23.491Z,16.59
2018-09-11T23:01:53.159Z,16.44
2018-09-11T23:04:21.550Z,16.36
2018-09-11T23:06:49.730Z,16.33
2018-09-11T23:09:17.910Z,16.40
2018-09-11T23:11:46.176Z,16.35
2018-09-11T23:14:14.685Z,16.20
2018-09-11T23:16:42.880Z,16.19
2018-09-11T23:19:11.926Z,16.25
2018-09-11T23:21:40.110Z,16.23
2018-09-11T23:24:08.163Z,16.25
2018-09-11T23:26:36.410Z,16.22
2018-09-11T23:29:04.816Z,16.04
2018-09-11T23:31:32.882Z,15.91
2018-09-11T23:34:00.949Z,15.80
2018-09-11T23:36:29.024Z,15.96
2018-09-11T23:38:57.084Z,16.00
2018-09-11T23:41:25.165Z,15.91
2018-09-11T23:43:53.218Z,15.82
2018-09-11T23:46:21.299Z,15.89
2018-09-11T23:48:49.415Z,15.78
2018-09-11T23:51:17.539Z,15.67
2018-09-11T23:53:45.614Z,15.53
2018-09-11T23:56:13.692Z,15.52
2018-09-11T23:58:41.773Z,15.43
